Time;durP1;ratioP1;P1;durP2;ratioP2;P2;SDS_P1;SDS_P2;PMS_P1;PMS_P2;Temp;Humidity;BMP_temperature;BMP_pressure;BME280_temperature;BME280_humidity;BME280_pressure;Samples;Min_cycle;Max_cycle;Signal;HPM_P1;HPM_P2
2024/01/26 00:00:58;;;;;;;7.85;3.22;;;;;;;;;;4946127;28;99649;-71
2024/01/26 00:03:25;;;;;;;7.03;3.50;;;;;;;;;;4945896;28;100103;-71
2024/01/26 00:05:52;;;;;;;6.25;2.92;;;;;;;;;;4968091;28;99000;-71
2024/01/26 00:08:18;;;;;;;7.28;3.22;;;;;;;;;;4965207;28;105176;-71
2024/01/26 00:10:45;;;;;;;7.18;3.20;;;;;;;;;;4950291;28;98793;-75
2024/01/26 00:13:13;;;;;;;6.82;3.08;;;;;;;;;;4946420;28;99956;-75
2024/01/26 00:15:40;;;;;;;6.70;3.22;;;;;;;;;;4946343;28;98956;-75
2024/01/26 00:18:07;;;;;;;6.60;3.53;;;;;;;;;;4944760;28;98830;-75
2024/01/26 00:20:34;;;;;;;8.73;3.53;;;;;;;;;;4945666;28;98905;-76
2024/01/26 00:23:01;;;;;;;8.95;3.65;;;;;;;;;;4944947;28;100676;-75
2024/01/26 00:25:27;;;;;;;7.10;3.50;;;;;;;;;;4945914;28;98822;-75
2024/01/26 00:27:54;;;;;;;8.27;3.88;;;;;;;;;;4948189;28;99937;-75
2024/01/26 00:30:21;;;;;;;8.20;3.47;;;;;;;;;;4945689;28;98824;-75
2024/01/26 00:32:47;;;;;;;6.75;3.30;;;;;;;;;;4944664;28;99936;-75
2024/01/26 00:35:15;;;;;;;5.97;3.00;;;;;;;;;;4952742;28;100495;-75
2024/01/26 00:37:41;;;;;;;7.75;3.40;;;;;;;;;;4959806;28;98599;-75
2024/01/26 00:40:08;;;;;;;6.97;3.25;;;;;;;;;;4928338;28;100038;-75
2024/01/26 00:42:34;;;;;;;5.47;2.95;;;;;;;;;;4944696;28;99197;-75
2024/01/26 00:45:01;;;;;;;6.88;3.08;;;;;;;;;;4944356;28;98910;-75
2024/01/26 00:47:27;;;;;;;7.45;3.00;;;;;;;;;;4948442;28;99778;-75
2024/01/26 00:49:54;;;;;;;6.63;3.10;;;;;;;;;;4952151;28;99193;-76
2024/01/26 00:52:21;;;;;;;7.00;3.03;;;;;;;;;;4948463;28;98930;-75
2024/01/26 00:54:47;;;;;;;8.18;3.22;;;;;;;;;;4947526;28;101232;-75
2024/01/26 00:57:14;;;;;;;6.80;2.90;;;;;;;;;;4948548;28;98506;-75
2024/01/26 00:59:41;;;;;;;7.22;2.92;;;;;;;;;;4949099;28;99922;-75
2024/01/26 01:02:08;;;;;;;6.75;3.00;;;;;;;;;;4948536;28;99349;-75
2024/01/26 01:04:35;;;;;;;5.00;2.75;;;;;;;;;;4956461;28;98313;-75
2024/01/26 01:07:03;;;;;;;6.05;3.10;;;;;;;;;;4952975;28;99122;-75
2024/01/26 01:09:29;;;;;;;6.28;2.90;;;;;;;;;;4948550;28;99226;-75
2024/01/26 01:11:56;;;;;;;6.22;3.05;;;;;;;;;;4951132;28;102289;-75
2024/01/26 01:14:23;;;;;;;5.60;2.67;;;;;;;;;;4948212;28;100139;-74
2024/01/26 01:16:50;;;;;;;6.78;2.80;;;;;;;;;;4947866;28;98736;-75
2024/01/26 01:19:16;;;;;;;5.35;2.83;;;;;;;;;;4948553;28;100066;-75
2024/01/26 01:21:44;;;;;;;5.25;2.72;;;;;;;;;;4947929;28;99062;-75
2024/01/26 01:24:11;;;;;;;6.28;2.78;;;;;;;;;;4948436;28;98936;-75
2024/01/26 01:26:38;;;;;;;5.13;2.55;;;;;;;;;;4947529;28;99430;-75
2024/01/26 01:29:04;;;;;;;6.18;2.90;;;;;;;;;;4948616;28;100253;-76
2024/01/26 01:31:31;;;;;;;5.28;2.53;;;;;;;;;;4951480;28;98958;-75
2024/01/26 01:33:57;;;;;;;6.10;2.92;;;;;;;;;;4947368;28;99761;-75
2024/01/26 01:36:24;;;;;;;6.63;2.85;;;;;;;;;;4965480;28;99649;-75
2024/01/26 01:38:51;;;;;;;4.90;2.78;;;;;;;;;;4957513;28;100855;-75
2024/01/26 01:41:17;;;;;;;6.63;2.72;;;;;;;;;;4954467;28;100231;-75
2024/01/26 01:43:52;;;;;;;4.97;2.33;;;;;;;;;;4948397;28;99008;-75
2024/01/26 01:46:18;;;;;;;5.80;2.42;;;;;;;;;;4947887;28;100603;-75
2024/01/26 01:48:45;;;;;;;12.93;2.80;;;;;;;;;;4947401;28;99272;-75
2024/01/26 01:51:13;;;;;;;4.93;2.40;;;;;;;;;;4947793;28;98834;-75
2024/01/26 01:53:39;;;;;;;;;;;;;;;;;;4952049;28;98957;-75
2024/01/26 01:56:09;;;;;;;4.28;2.40;;;;;;;;;;4946746;28;114706;-75
2024/01/26 01:58:37;;;;;;;6.63;2.22;;;;;;;;;;4947255;28;99891;-75
2024/01/26 02:01:04;;;;;;;;;;;;;;;;;;4947613;28;101039;-75
2024/01/26 02:03:30;;;;;;;4.75;2.28;;;;;;;;;;4946377;28;116855;-75
2024/01/26 02:05:57;;;;;;;5.40;2.55;;;;;;;;;;4963316;28;99318;-75
2024/01/26 02:08:24;;;;;;;6.50;2.45;;;;;;;;;;4947229;28;100692;-74
2024/01/26 02:10:50;;;;;;;4.63;2.35;;;;;;;;;;4947001;28;99022;-75
2024/01/26 02:13:17;;;;;;;5.03;2.25;;;;;;;;;;4947163;28;98899;-74
2024/01/26 02:15:44;;;;;;;4.88;2.17;;;;;;;;;;4950002;28;99631;-75
2024/01/26 02:18:11;;;;;;;5.22;2.20;;;;;;;;;;4929138;28;99868;-75
2024/01/26 02:20:37;;;;;;;4.45;2.17;;;;;;;;;;4946177;28;99174;-75
2024/01/26 02:23:22;;;;;;;5.00;2.30;;;;;;;;;;4915259;28;99094;-75
2024/01/26 02:25:48;;;;;;;3.45;2.00;;;;;;;;;;4946592;28;101070;-75
2024/01/26 02:28:15;;;;;;;5.05;2.38;;;;;;;;;;4946587;28;98730;-74
2024/01/26 02:30:41;;;;;;;8.55;2.40;;;;;;;;;;4946485;28;98839;-74
2024/01/26 02:33:08;;;;;;;5.18;2.30;;;;;;;;;;4946890;28;101640;-75
2024/01/26 02:35:35;;;;;;;6.50;2.17;;;;;;;;;;4947093;28;99222;-75
2024/01/26 02:38:01;;;;;;;5.15;1.98;;;;;;;;;;4953524;28;98953;-75
2024/01/26 02:40:29;;;;;;;7.80;1.75;;;;;;;;;;4966045;28;99512;-75
2024/01/26 02:42:56;;;;;;;6.65;1.95;;;;;;;;;;4966503;28;98519;-75
2024/01/26 02:45:23;;;;;;;5.30;2.20;;;;;;;;;;4951864;28;99548;-75
2024/01/26 02:47:50;;;;;;;5.00;2.10;;;;;;;;;;4946579;28;100276;-74
2024/01/26 02:50:17;;;;;;;4.93;2.10;;;;;;;;;;4929242;28;99631;-75
2024/01/26 02:52:43;;;;;;;6.13;2.08;;;;;;;;;;4944659;28;99751;-74
2024/01/26 02:55:10;;;;;;;4.50;2.00;;;;;;;;;;4946829;28;99930;-75
2024/01/26 02:57:36;;;;;;;4.82;2.17;;;;;;;;;;4946427;28;98896;-73
2024/01/26 03:00:04;;;;;;;5.07;2.10;;;;;;;;;;4949929;28;98812;-74
2024/01/26 03:02:31;;;;;;;4.78;2.25;;;;;;;;;;4946132;28;98822;-75
2024/01/26 03:04:57;;;;;;;7.28;2.22;;;;;;;;;;4946876;28;100277;-75
2024/01/26 03:07:24;;;;;;;5.22;2.13;;;;;;;;;;4947014;28;99638;-74
2024/01/26 03:09:50;;;;;;;4.85;2.30;;;;;;;;;;4946102;28;98767;-75
2024/01/26 03:12:17;;;;;;;7.93;2.53;;;;;;;;;;4946423;28;100600;-75
2024/01/26 03:14:43;;;;;;;5.28;2.38;;;;;;;;;;4943574;28;101036;-75
2024/01/26 03:17:10;;;;;;;21.77;2.60;;;;;;;;;;4946704;28;98819;-75
2024/01/26 03:19:36;;;;;;;4.15;2.13;;;;;;;;;;4946525;28;100386;-75
2024/01/26 03:22:03;;;;;;;3.78;2.00;;;;;;;;;;4949074;28;99260;-75
2024/01/26 03:24:30;;;;;;;4.57;2.10;;;;;;;;;;4946132;28;100124;-75
2024/01/26 03:26:56;;;;;;;3.10;1.73;;;;;;;;;;4945195;28;100577;-75
2024/01/26 03:29:23;;;;;;;5.75;2.65;;;;;;;;;;4946342;28;98863;-75
2024/01/26 03:31:49;;;;;;;3.95;2.00;;;;;;;;;;4945934;28;98889;-75
2024/01/26 03:34:16;;;;;;;6.47;2.58;;;;;;;;;;4945422;28;99767;-75
2024/01/26 03:36:42;;;;;;;6.25;2.50;;;;;;;;;;4945576;28;98931;-75
2024/01/26 03:39:09;;;;;;;4.40;2.13;;;;;;;;;;4947239;28;101612;-75
2024/01/26 03:41:40;;;;;;;5.15;2.30;;;;;;;;;;4943045;28;99329;-76
2024/01/26 03:44:07;;;;;;;5.47;2.45;;;;;;;;;;4945603;28;99954;-74
2024/01/26 03:46:34;;;;;;;5.60;2.40;;;;;;;;;;4944775;28;106024;-75
2024/01/26 03:49:03;;;;;;;6.72;2.40;;;;;;;;;;4946027;28;98565;-75
2024/01/26 03:51:30;;;;;;;6.32;2.80;;;;;;;;;;4945858;28;100058;-75
2024/01/26 03:53:59;;;;;;;5.75;2.40;;;;;;;;;;4945588;28;100280;-75
2024/01/26 03:56:26;;;;;;;8.77;2.53;;;;;;;;;;4943907;28;98609;-75
2024/01/26 03:58:53;;;;;;;5.35;2.50;;;;;;;;;;4927831;28;99310;-75
2024/01/26 04:01:20;;;;;;;;;;;;;;;;;;4945835;28;99270;-75
2024/01/26 04:03:47;;;;;;;4.97;2.47;;;;;;;;;;4949564;28;113159;-75
2024/01/26 04:06:14;;;;;;;5.32;2.00;;;;;;;;;;4945680;28;99630;-74
2024/01/26 04:08:40;;;;;;;4.40;2.13;;;;;;;;;;4945064;28;98650;-75
2024/01/26 04:11:07;;;;;;;9.07;2.38;;;;;;;;;;4945873;28;100246;-75
2024/01/26 04:13:33;;;;;;;5.35;2.42;;;;;;;;;;4945520;28;100413;-75
2024/01/26 04:16:00;;;;;;;5.30;2.20;;;;;;;;;;4945022;28;98631;-75
2024/01/26 04:18:27;;;;;;;6.28;2.33;;;;;;;;;;4945760;28;98900;-75
2024/01/26 04:20:53;;;;;;;5.38;2.30;;;;;;;;;;4945013;28;98514;-75
2024/01/26 04:23:20;;;;;;;4.47;2.38;;;;;;;;;;4945142;28;103185;-76
2024/01/26 04:25:46;;;;;;;4.38;2.00;;;;;;;;;;4947404;28;101884;-75
2024/01/26 04:28:13;;;;;;;5.53;2.10;;;;;;;;;;4945356;28;99834;-75
2024/01/26 04:30:42;;;;;;;4.75;2.25;;;;;;;;;;4945028;28;100855;-76
2024/01/26 04:33:08;;;;;;;4.93;2.00;;;;;;;;;;4945137;28;99298;-75
2024/01/26 04:35:35;;;;;;;4.68;2.00;;;;;;;;;;4945516;28;98589;-75
2024/01/26 04:38:02;;;;;;;4.75;2.03;;;;;;;;;;4957057;28;100111;-75
2024/01/26 04:40:28;;;;;;;4.97;2.00;;;;;;;;;;4944552;28;100144;-75
2024/01/26 04:42:55;;;;;;;5.57;2.30;;;;;;;;;;4944780;28;99022;-76
2024/01/26 04:45:21;;;;;;;5.57;2.00;;;;;;;;;;4945361;28;98809;-75
2024/01/26 04:47:48;;;;;;;4.35;2.13;;;;;;;;;;4948097;28;99290;-75
2024/01/26 04:50:15;;;;;;;5.50;2.40;;;;;;;;;;4945271;28;99887;-75
2024/01/26 04:52:41;;;;;;;4.15;1.90;;;;;;;;;;4943655;28;101092;-75
2024/01/26 04:55:10;;;;;;;5.00;2.25;;;;;;;;;;4928035;28;98946;-75
2024/01/26 04:57:36;;;;;;;4.50;2.03;;;;;;;;;;4943796;28;98786;-75
2024/01/26 05:00:03;;;;;;;6.38;2.30;;;;;;;;;;4944946;28;99186;-75
2024/01/26 05:02:30;;;;;;;;;;;;;;;;;;4944966;28;98534;-74
2024/01/26 05:04:57;;;;;;;5.72;2.25;;;;;;;;;;4945757;28;125621;-75
2024/01/26 05:07:23;;;;;;;5.35;2.22;;;;;;;;;;4944736;28;99859;-75
2024/01/26 05:09:50;;;;;;;4.55;2.35;;;;;;;;;;4949164;28;97732;-74
2024/01/26 05:12:16;;;;;;;5.45;2.30;;;;;;;;;;4944657;28;100126;-74
2024/01/26 05:14:43;;;;;;;4.93;2.33;;;;;;;;;;4944145;28;98499;-74
2024/01/26 05:17:10;;;;;;;6.32;2.53;;;;;;;;;;4944570;28;99815;-74
2024/01/26 05:19:36;;;;;;;4.85;2.30;;;;;;;;;;4944219;28;100181;-74
2024/01/26 05:22:03;;;;;;;5.63;2.25;;;;;;;;;;4944595;28;98604;-74
2024/01/26 05:24:29;;;;;;;9.95;2.95;;;;;;;;;;4944418;28;99213;-74
2024/01/26 05:26:56;;;;;;;6.05;2.33;;;;;;;;;;4944319;28;99179;-74
2024/01/26 05:29:22;;;;;;;5.15;2.28;;;;;;;;;;4944997;28;98613;-74
2024/01/26 05:31:52;;;;;;;5.85;2.30;;;;;;;;;;4948813;28;98835;-74
2024/01/26 05:34:19;;;;;;;6.60;2.50;;;;;;;;;;4948436;28;98025;-74
2024/01/26 05:36:46;;;;;;;5.13;2.47;;;;;;;;;;4947716;28;99156;-73
2024/01/26 05:39:13;;;;;;;5.85;2.30;;;;;;;;;;4947488;28;100351;-75
2024/01/26 05:41:39;;;;;;;4.88;2.42;;;;;;;;;;4930122;28;99456;-74
2024/01/26 05:44:06;;;;;;;3.80;2.05;;;;;;;;;;4947235;28;100882;-74
2024/01/26 05:46:33;;;;;;;5.63;2.17;;;;;;;;;;4946715;28;100689;-73
2024/01/26 05:48:59;;;;;;;5.63;2.22;;;;;;;;;;4948155;28;98491;-74
2024/01/26 05:51:26;;;;;;;4.68;2.25;;;;;;;;;;4950878;28;98907;-74
2024/01/26 05:53:53;;;;;;;5.43;2.00;;;;;;;;;;4947477;28;98641;-74
2024/01/26 05:56:21;;;;;;;5.32;2.42;;;;;;;;;;4929645;28;101784;-74
2024/01/26 05:58:48;;;;;;;4.90;2.22;;;;;;;;;;4946485;28;98417;-73
2024/01/26 06:01:15;;;;;;;5.25;2.00;;;;;;;;;;4949162;28;99119;-74
2024/01/26 06:03:41;;;;;;;4.35;1.75;;;;;;;;;;4967180;28;99147;-74
2024/01/26 06:06:08;;;;;;;4.88;2.00;;;;;;;;;;4966118;28;100794;-74
2024/01/26 06:08:35;;;;;;;5.28;2.00;;;;;;;;;;4967049;28;99380;-73
2024/01/26 06:11:02;;;;;;;4.97;1.85;;;;;;;;;;4967586;28;98833;-74
2024/01/26 06:13:28;;;;;;;5.15;1.80;;;;;;;;;;4969665;28;99129;-74
2024/01/26 06:15:55;;;;;;;5.57;1.92;;;;;;;;;;4956598;28;99872;-75
2024/01/26 06:18:21;;;;;;;4.22;1.70;;;;;;;;;;4947195;28;99687;-75
2024/01/26 06:20:48;;;;;;;3.80;1.65;;;;;;;;;;4946030;28;98969;-74
2024/01/26 06:23:15;;;;;;;3.75;1.73;;;;;;;;;;4947793;28;99195;-74
2024/01/26 06:25:41;;;;;;;5.78;1.90;;;;;;;;;;4947072;28;99296;-74
2024/01/26 06:28:08;;;;;;;5.82;2.00;;;;;;;;;;4946152;28;99006;-75
2024/01/26 06:30:34;;;;;;;5.00;1.70;;;;;;;;;;4945843;28;100010;-74
2024/01/26 06:33:01;;;;;;;4.55;1.77;;;;;;;;;;4947031;28;99391;-74
2024/01/26 06:35:28;;;;;;;3.83;1.60;;;;;;;;;;4950198;28;98458;-75
2024/01/26 06:37:54;;;;;;;3.95;1.70;;;;;;;;;;4948579;28;100211;-75
2024/01/26 06:40:21;;;;;;;4.70;1.77;;;;;;;;;;4966451;28;98940;-74
2024/01/26 06:42:47;;;;;;;4.38;1.70;;;;;;;;;;4964488;28;99262;-74
2024/01/26 06:45:14;;;;;;;4.57;1.80;;;;;;;;;;4946037;28;100958;-73
2024/01/26 06:47:40;;;;;;;4.72;1.80;;;;;;;;;;4947447;28;99021;-74
2024/01/26 06:50:07;;;;;;;5.10;1.67;;;;;;;;;;4946817;28;99033;-74
2024/01/26 06:52:38;;;;;;;4.13;1.80;;;;;;;;;;4945543;28;99664;-75
2024/01/26 06:55:05;;;;;;;5.07;2.00;;;;;;;;;;4947316;28;99742;-74
2024/01/26 06:57:31;;;;;;;6.47;1.90;;;;;;;;;;4949919;28;99614;-74
2024/01/26 06:59:58;;;;;;;5.18;2.03;;;;;;;;;;4947154;28;98574;-74
2024/01/26 07:02:25;;;;;;;3.70;1.80;;;;;;;;;;4947361;28;98857;-74
2024/01/26 07:04:51;;;;;;;5.43;2.00;;;;;;;;;;4945977;28;99288;-74
2024/01/26 07:07:17;;;;;;;6.22;2.17;;;;;;;;;;4947058;28;99053;-74
2024/01/26 07:09:44;;;;;;;13.05;2.13;;;;;;;;;;4947240;28;98575;-75
2024/01/26 07:12:11;;;;;;;4.43;1.75;;;;;;;;;;4946446;28;98491;-74
2024/01/26 07:14:37;;;;;;;4.80;1.80;;;;;;;;;;4946155;28;98712;-73
2024/01/26 07:17:04;;;;;;;3.60;1.63;;;;;;;;;;4946788;28;98860;-74
2024/01/26 07:19:30;;;;;;;4.13;1.80;;;;;;;;;;4949314;28;99943;-74
2024/01/26 07:21:57;;;;;;;4.63;1.95;;;;;;;;;;4946658;28;100938;-74
2024/01/26 07:24:23;;;;;;;3.53;1.67;;;;;;;;;;4945811;28;100326;-74
2024/01/26 07:26:50;;;;;;;4.13;1.80;;;;;;;;;;4945739;28;98859;-74
2024/01/26 07:29:17;;;;;;;6.93;1.83;;;;;;;;;;4947033;28;99194;-74
2024/01/26 07:31:45;;;;;;;3.08;1.50;;;;;;;;;;4928017;28;100471;-74
2024/01/26 07:34:11;;;;;;;4.22;1.73;;;;;;;;;;4946885;28;99449;-74
2024/01/26 07:36:38;;;;;;;4.53;1.80;;;;;;;;;;4945541;28;98809;-73
2024/01/26 07:39:09;;;;;;;3.83;1.67;;;;;;;;;;4956097;28;100599;-73
2024/01/26 07:41:36;;;;;;;5.00;1.60;;;;;;;;;;4931747;28;100258;-73
2024/01/26 07:44:02;;;;;;;4.47;1.70;;;;;;;;;;4945007;28;100279;-74
2024/01/26 07:46:29;;;;;;;4.22;1.80;;;;;;;;;;4945404;28;98486;-72
2024/01/26 07:48:55;;;;;;;4.05;1.73;;;;;;;;;;4946272;28;98862;-73
2024/01/26 07:51:22;;;;;;;4.35;1.60;;;;;;;;;;4945450;28;99103;-74
2024/01/26 07:53:49;;;;;;;2.97;1.50;;;;;;;;;;4945622;28;99253;-75
2024/01/26 07:56:15;;;;;;;6.60;1.80;;;;;;;;;;4946234;28;98870;-74
2024/01/26 07:58:41;;;;;;;4.65;1.80;;;;;;;;;;4945531;28;99342;-74
2024/01/26 08:01:11;;;;;;;4.93;1.80;;;;;;;;;;4949756;28;98232;-74
2024/01/26 08:03:38;;;;;;;2.72;1.60;;;;;;;;;;4945934;28;100827;-74
2024/01/26 08:06:06;;;;;;;2.63;1.67;;;;;;;;;;4965040;28;98977;-74
2024/01/26 08:08:33;;;;;;;4.13;1.60;;;;;;;;;;4951804;28;99940;-74
2024/01/26 08:10:59;;;;;;;4.30;1.70;;;;;;;;;;4945954;28;99521;-70
2024/01/26 08:13:26;;;;;;;7.88;1.83;;;;;;;;;;4945046;28;98824;-71
2024/01/26 08:15:54;;;;;;;5.13;1.70;;;;;;;;;;4943708;28;100614;-70
2024/01/26 08:18:21;;;;;;;4.85;1.70;;;;;;;;;;4944521;28;100209;-71
2024/01/26 08:20:48;;;;;;;4.47;1.52;;;;;;;;;;4944728;28;98973;-70
2024/01/26 08:23:14;;;;;;;5.82;1.60;;;;;;;;;;4947708;28;99017;-72
2024/01/26 08:25:41;;;;;;;4.63;1.38;;;;;;;;;;4944592;28;98041;-72
2024/01/26 08:28:08;;;;;;;4.15;1.45;;;;;;;;;;4946557;28;99560;-72
2024/01/26 08:30:35;;;;;;;5.30;1.52;;;;;;;;;;4946239;28;100108;-71
2024/01/26 08:33:01;;;;;;;4.45;1.38;;;;;;;;;;4944797;28;99754;-72
2024/01/26 08:35:28;;;;;;;5.07;1.30;;;;;;;;;;4943152;28;100615;-72
2024/01/26 08:37:55;;;;;;;2.53;1.30;;;;;;;;;;4947348;28;99187;-71
2024/01/26 08:40:22;;;;;;;2.97;1.38;;;;;;;;;;4950501;28;98994;-72
2024/01/26 08:42:48;;;;;;;3.08;1.40;;;;;;;;;;4944817;28;98959;-72
2024/01/26 08:45:15;;;;;;;3.92;1.40;;;;;;;;;;4948431;28;100425;-72
2024/01/26 08:47:41;;;;;;;3.45;1.40;;;;;;;;;;4946017;28;99259;-72
2024/01/26 08:50:08;;;;;;;2.97;1.30;;;;;;;;;;4943250;28;99459;-72
2024/01/26 08:52:35;;;;;;;3.72;1.40;;;;;;;;;;4944696;28;99047;-72
2024/01/26 08:55:02;;;;;;;3.25;1.15;;;;;;;;;;4945376;28;98957;-72
2024/01/26 08:57:28;;;;;;;5.10;1.20;;;;;;;;;;4942035;28;101835;-72
2024/01/26 08:59:55;;;;;;;4.07;1.23;;;;;;;;;;4945215;28;98786;-71
2024/01/26 09:02:21;;;;;;;1.83;0.90;;;;;;;;;;4944163;28;100275;-72
2024/01/26 09:04:48;;;;;;;2.25;0.95;;;;;;;;;;4951740;28;100621;-71
2024/01/26 09:07:17;;;;;;;3.33;1.25;;;;;;;;;;4968530;28;99035;-72
2024/01/26 09:09:44;;;;;;;2.53;0.95;;;;;;;;;;4960585;28;100190;-72
2024/01/26 09:12:10;;;;;;;2.95;1.00;;;;;;;;;;4930304;28;99068;-72
2024/01/26 09:14:37;;;;;;;2.60;1.00;;;;;;;;;;4947691;28;99870;-71
2024/01/26 09:17:03;;;;;;;2.63;1.00;;;;;;;;;;4947095;28;99195;-72
2024/01/26 09:19:30;;;;;;;2.78;0.90;;;;;;;;;;4947343;28;99127;-72
2024/01/26 09:21:56;;;;;;;3.88;1.00;;;;;;;;;;4947330;28;100184;-72
2024/01/26 09:24:23;;;;;;;2.85;0.98;;;;;;;;;;4947408;28;99301;-72
2024/01/26 09:26:50;;;;;;;2.03;0.85;;;;;;;;;;4947171;28;99036;-72
2024/01/26 09:29:17;;;;;;;2.38;0.98;;;;;;;;;;4949694;28;99784;-72
2024/01/26 09:31:43;;;;;;;1.48;0.85;;;;;;;;;;4945766;28;99289;-72
2024/01/26 09:34:10;;;;;;;2.00;0.85;;;;;;;;;;4946878;28;98868;-71
2024/01/26 09:36:36;;;;;;;2.25;0.90;;;;;;;;;;4934190;28;99598;-71
2024/01/26 09:39:03;;;;;;;2.40;0.85;;;;;;;;;;4959017;28;98203;-72
2024/01/26 09:41:30;;;;;;;3.05;0.90;;;;;;;;;;4948118;28;98948;-72
2024/01/26 09:43:56;;;;;;;2.63;1.00;;;;;;;;;;4946668;28;99632;-71
2024/01/26 09:46:23;;;;;;;3.58;1.00;;;;;;;;;;4946432;28;99747;-73
2024/01/26 09:48:53;;;;;;;2.75;0.82;;;;;;;;;;4950584;28;100782;-72
2024/01/26 09:51:20;;;;;;;1.58;1.00;;;;;;;;;;4947743;28;99057;-72
2024/01/26 09:53:49;;;;;;;2.15;0.80;;;;;;;;;;4930442;28;98873;-73
2024/01/26 09:56:16;;;;;;;2.03;0.80;;;;;;;;;;4947374;28;99732;-72
2024/01/26 09:58:42;;;;;;;2.85;0.80;;;;;;;;;;4946764;28;99022;-73
2024/01/26 10:01:11;;;;;;;2.25;0.80;;;;;;;;;;4946944;28;100104;-73
2024/01/26 10:03:38;;;;;;;3.08;0.77;;;;;;;;;;4948001;28;98992;-72
2024/01/26 10:06:05;;;;;;;3.83;0.85;;;;;;;;;;4961667;28;99255;-73
2024/01/26 10:08:32;;;;;;;;;;;;;;;;;;4946583;28;98910;-72
2024/01/26 10:10:58;;;;;;;5.25;0.80;;;;;;;;;;4950582;28;120171;-71
2024/01/26 10:13:25;;;;;;;3.78;1.02;;;;;;;;;;4947304;28;100204;-73
2024/01/26 10:15:51;;;;;;;3.55;0.93;;;;;;;;;;4946882;28;100647;-73
2024/01/26 10:18:18;;;;;;;5.53;1.10;;;;;;;;;;4947110;28;99395;-71
2024/01/26 10:20:44;;;;;;;9.32;1.20;;;;;;;;;;4947019;28;99147;-72
2024/01/26 10:23:11;;;;;;;6.13;1.05;;;;;;;;;;4944638;28;100453;-71
2024/01/26 10:25:38;;;;;;;;;;;;;;;;;;4947538;28;98979;-71
2024/01/26 10:28:09;;;;;;;7.70;1.10;;;;;;;;;;4948840;28;98924;-71
2024/01/26 10:30:41;;;;;;;3.97;0.93;;;;;;;;;;4945791;28;100637;-72
2024/01/26 10:33:08;;;;;;;6.32;1.10;;;;;;;;;;4950275;28;98830;-72
2024/01/26 10:35:35;;;;;;;4.68;1.10;;;;;;;;;;4945512;28;100987;-73
2024/01/26 10:38:02;;;;;;;5.45;1.05;;;;;;;;;;4946654;28;98769;-72
2024/01/26 10:40:29;;;;;;;9.27;1.40;;;;;;;;;;4946379;28;98890;-73
2024/01/26 10:42:56;;;;;;;;;;;;;;;;;;4945951;28;104084;-73
2024/01/26 10:45:22;;;;;;;7.07;1.15;;;;;;;;;;4947036;28;107788;-73
2024/01/26 10:47:49;;;;;;;5.78;0.95;;;;;;;;;;4942200;28;99308;-73
2024/01/26 10:50:16;;;;;;;;;;;;;;;;;;4928919;28;99137;-73
2024/01/26 10:52:44;;;;;;;4.47;0.95;;;;;;;;;;4945898;28;98092;-73
2024/01/26 10:55:13;;;;;;;4.00;0.90;;;;;;;;;;4948850;28;99259;-74
2024/01/26 10:57:39;;;;;;;5.25;1.27;;;;;;;;;;4943840;28;98943;-73
2024/01/26 11:00:07;;;;;;;7.30;1.17;;;;;;;;;;4945920;28;99777;-73
2024/01/26 11:02:34;;;;;;;3.63;0.90;;;;;;;;;;4943766;28;99782;-73
2024/01/26 11:05:07;;;;;;;4.30;1.00;;;;;;;;;;4938083;28;99065;-73
2024/01/26 11:07:34;;;;;;;5.70;1.08;;;;;;;;;;4947038;28;99342;-73
2024/01/26 11:10:05;;;;;;;6.82;1.13;;;;;;;;;;4928840;28;100467;-73
2024/01/26 11:12:33;;;;;;;3.63;0.98;;;;;;;;;;4944629;28;98920;-73
2024/01/26 11:15:02;;;;;;;6.07;1.20;;;;;;;;;;4947632;28;99056;-72
2024/01/26 11:17:42;;;;;;;4.30;1.10;;;;;;;;;;4935555;28;98512;-74
2024/01/26 11:20:14;;;;;;;4.10;0.90;;;;;;;;;;4950841;28;98689;-74
2024/01/26 11:22:42;;;;;;;4.95;1.20;;;;;;;;;;4930877;28;99992;-74
2024/01/26 11:25:18;;;;;;;3.80;1.00;;;;;;;;;;4948576;28;99686;-74
2024/01/26 11:27:45;;;;;;;5.65;1.02;;;;;;;;;;4946992;28;100601;-73
2024/01/26 11:30:24;;;;;;;4.50;1.00;;;;;;;;;;4946017;28;100178;-74
2024/01/26 11:32:51;;;;;;;3.03;0.93;;;;;;;;;;4946891;28;98855;-74
2024/01/26 11:35:19;;;;;;;3.70;0.98;;;;;;;;;;4950634;28;99873;-73
2024/01/26 11:37:46;;;;;;;3.90;1.05;;;;;;;;;;4947435;28;99967;-74
2024/01/26 11:40:14;;;;;;;3.58;1.00;;;;;;;;;;4960906;28;98998;-75
2024/01/26 11:42:41;;;;;;;3.40;0.90;;;;;;;;;;4948307;28;98338;-74
2024/01/26 11:45:13;;;;;;;;;;;;;;;;;;4966240;28;98756;-75
2024/01/26 11:47:41;;;;;;;5.40;1.00;;;;;;;;;;4967383;28;120347;-73
2024/01/26 11:50:09;;;;;;;5.28;1.13;;;;;;;;;;4966193;28;100071;-74
2024/01/26 11:52:36;;;;;;;4.38;0.98;;;;;;;;;;4949721;28;99099;-74
2024/01/26 11:55:03;;;;;;;6.20;1.20;;;;;;;;;;4948199;28;100394;-73
2024/01/26 11:57:30;;;;;;;5.38;1.30;;;;;;;;;;4947795;28;99291;-74
2024/01/26 11:59:59;;;;;;;5.15;1.20;;;;;;;;;;4949559;28;98967;-74
2024/01/26 12:02:29;;;;;;;6.80;1.35;;;;;;;;;;4945381;28;98959;-73
2024/01/26 12:04:56;;;;;;;5.70;1.27;;;;;;;;;;4946110;28;99042;-74
2024/01/26 12:07:23;;;;;;;4.95;1.10;;;;;;;;;;4946148;28;100047;-74
2024/01/26 12:09:49;;;;;;;7.00;1.40;;;;;;;;;;4946341;28;99449;-74
2024/01/26 12:12:16;;;;;;;6.60;1.23;;;;;;;;;;4943926;28;99026;-74
2024/01/26 12:14:43;;;;;;;4.10;1.00;;;;;;;;;;4945340;28;99309;-74
2024/01/26 12:17:10;;;;;;;4.60;0.80;;;;;;;;;;4946453;28;100628;-74
2024/01/26 12:19:39;;;;;;;5.82;1.17;;;;;;;;;;4946780;28;99072;-74
2024/01/26 12:22:07;;;;;;;6.22;1.30;;;;;;;;;;4951150;28;100716;-74
2024/01/26 12:24:34;;;;;;;7.40;1.40;;;;;;;;;;4947052;28;98643;-73
2024/01/26 12:27:02;;;;;;;7.70;1.50;;;;;;;;;;4946408;28;99897;-73
2024/01/26 12:29:29;;;;;;;7.82;1.40;;;;;;;;;;4946247;28;99664;-73
2024/01/26 12:32:07;;;;;;;6.60;1.30;;;;;;;;;;4947282;28;98391;-73
2024/01/26 12:34:35;;;;;;;6.30;1.20;;;;;;;;;;4944170;28;98758;-73
2024/01/26 12:37:06;;;;;;;6.00;1.23;;;;;;;;;;4926989;28;100126;-75
2024/01/26 12:39:33;;;;;;;6.30;1.50;;;;;;;;;;4944531;28;99783;-75
2024/01/26 12:41:59;;;;;;;6.97;1.38;;;;;;;;;;4947930;28;99453;-75
2024/01/26 12:44:28;;;;;;;6.18;1.05;;;;;;;;;;4951412;28;99793;-75
2024/01/26 12:46:58;;;;;;;6.63;1.45;;;;;;;;;;4947923;28;99930;-74
2024/01/26 12:49:24;;;;;;;6.82;1.20;;;;;;;;;;4946949;28;99721;-74
2024/01/26 12:51:52;;;;;;;6.43;1.30;;;;;;;;;;4948736;28;99122;-74
2024/01/26 12:54:20;;;;;;;6.75;1.33;;;;;;;;;;4948742;28;99027;-74
2024/01/26 12:56:46;;;;;;;6.95;1.27;;;;;;;;;;4930988;28;98384;-74
2024/01/26 12:59:13;;;;;;;5.60;1.33;;;;;;;;;;4947424;28;99067;-74
2024/01/26 13:01:40;;;;;;;6.38;1.40;;;;;;;;;;4947105;28;98843;-74
2024/01/26 13:04:10;;;;;;;7.68;1.48;;;;;;;;;;4942204;28;103562;-74
2024/01/26 13:06:37;;;;;;;5.65;1.20;;;;;;;;;;4969063;28;99080;-74
2024/01/26 13:09:06;;;;;;;5.88;1.23;;;;;;;;;;4963321;28;101215;-74
2024/01/26 13:11:34;;;;;;;4.13;1.10;;;;;;;;;;4946636;28;98643;-74
2024/01/26 13:14:06;;;;;;;5.68;1.42;;;;;;;;;;4947345;28;99049;-74
2024/01/26 13:16:34;;;;;;;7.20;1.20;;;;;;;;;;4945822;28;99797;-74
2024/01/26 13:19:00;;;;;;;4.70;1.17;;;;;;;;;;4947100;28;98899;-74
2024/01/26 13:21:27;;;;;;;5.97;1.30;;;;;;;;;;4948887;28;99520;-74
2024/01/26 13:23:55;;;;;;;6.03;1.20;;;;;;;;;;4948030;28;105034;-74
2024/01/26 13:26:22;;;;;;;6.80;1.40;;;;;;;;;;4952314;28;98988;-74
2024/01/26 13:28:48;;;;;;;5.70;1.15;;;;;;;;;;4932465;28;100174;-74
2024/01/26 13:31:15;;;;;;;7.35;1.23;;;;;;;;;;4947500;28;98848;-73
2024/01/26 13:33:43;;;;;;;5.88;1.25;;;;;;;;;;4948342;28;99338;-74
2024/01/26 13:36:09;;;;;;;6.53;1.50;;;;;;;;;;4963761;28;99313;-74
2024/01/26 13:38:36;;;;;;;6.57;1.50;;;;;;;;;;4959757;28;98959;-74
2024/01/26 13:41:02;;;;;;;5.88;1.30;;;;;;;;;;4948471;28;99510;-74
2024/01/26 13:43:30;;;;;;;5.53;1.33;;;;;;;;;;4930006;28;102471;-74
2024/01/26 13:45:57;;;;;;;6.80;1.55;;;;;;;;;;4948176;28;98393;-74
2024/01/26 13:48:24;;;;;;;5.68;1.30;;;;;;;;;;4948056;28;99124;-74
2024/01/26 13:50:54;;;;;;;5.50;1.13;;;;;;;;;;4948763;28;100331;-74
2024/01/26 13:53:21;;;;;;;5.10;1.35;;;;;;;;;;4945526;28;99938;-74
2024/01/26 13:55:48;;;;;;;;;;;;;;;;;;4946694;28;99289;-74
2024/01/26 13:58:15;;;;;;;4.40;1.27;;;;;;;;;;4959990;28;112335;-74
2024/01/26 14:00:42;;;;;;;;;;;;;;;;;;4949839;28;99853;-74
2024/01/26 14:03:08;;;;;;;6.32;1.30;;;;;;;;;;4946231;28;109845;-74
2024/01/26 14:05:37;;;;;;;5.72;1.30;;;;;;;;;;4963319;28;99092;-74
2024/01/26 14:08:05;;;;;;;3.83;1.20;;;;;;;;;;4960427;28;98864;-74
2024/01/26 14:10:31;;;;;;;;;;;;;;;;;;4951429;28;98600;-74
2024/01/26 14:12:58;;;;;;;6.88;1.30;;;;;;;;;;4948838;28;99608;-74
2024/01/26 14:15:24;;;;;;;6.88;1.30;;;;;;;;;;4947715;28;99493;-74
2024/01/26 14:17:51;;;;;;;5.70;1.30;;;;;;;;;;4947011;28;99802;-74
2024/01/26 14:20:21;;;;;;;5.38;1.20;;;;;;;;;;4947364;28;99419;-74
2024/01/26 14:22:51;;;;;;;6.13;1.20;;;;;;;;;;4946495;28;99477;-74
2024/01/26 14:25:22;;;;;;;5.10;1.27;;;;;;;;;;4950854;28;98586;-74
2024/01/26 14:27:49;;;;;;;7.75;1.40;;;;;;;;;;4954580;28;100146;-74
2024/01/26 14:30:17;;;;;;;7.85;1.30;;;;;;;;;;4963073;28;99745;-73
2024/01/26 14:32:44;;;;;;;;;;;;;;;;;;4949765;28;99134;-74
2024/01/26 14:35:11;;;;;;;5.90;1.30;;;;;;;;;;4949009;28;99257;-74
2024/01/26 14:37:40;;;;;;;6.63;1.30;;;;;;;;;;4947240;28;98820;-74
2024/01/26 14:40:12;;;;;;;5.57;1.13;;;;;;;;;;4954969;28;100072;-74
2024/01/26 14:42:38;;;;;;;6.20;1.25;;;;;;;;;;4950624;28;99900;-74